createdAt,value
2022-08-05T00:01:36.041Z,7.38
2022-08-05T00:04:17.223Z,7.72
2022-08-05T00:06:44.512Z,7.88
2022-08-05T00:09:15.751Z,5.72
2022-08-05T00:11:49.017Z,7.07
2022-08-05T00:14:22.033Z,6.28
2022-08-05T00:16:54.576Z,7.88
2022-08-05T00:19:23.249Z,6.20
2022-08-05T00:21:51.606Z,7.65
2022-08-05T00:24:24.861Z,5.93
2022-08-05T00:26:58.960Z,6.63
2022-08-05T00:29:26.149Z,8.90
2022-08-05T00:32:12.243Z,8.43
2022-08-05T00:34:55.197Z,9.32
2022-08-05T00:37:35.474Z,9.93
2022-08-05T00:40:17.737Z,12.25
2022-08-05T00:42:55.598Z,6.28
2022-08-05T00:45:28.282Z,7.40
2022-08-05T00:48:05.953Z,7.57
2022-08-05T00:50:32.956Z,10.07
2022-08-05T00:52:59.645Z,9.25
2022-08-05T00:55:33.948Z,7.72
2022-08-05T00:58:11.113Z,8.30
2022-08-05T01:00:40.129Z,11.70
2022-08-05T01:03:08.871Z,13.32
2022-08-05T01:05:35.587Z,9.93
2022-08-05T01:08:30.704Z,11.52
2022-08-05T01:11:06.304Z,13.00
2022-08-05T01:13:58.809Z,11.50
2022-08-05T01:16:52.526Z,17.85
2022-08-05T01:19:56.525Z,13.25
2022-08-05T01:22:38.215Z,11.60
2022-08-05T01:25:22.394Z,9.52
2022-08-05T01:28:13.335Z,11.02
2022-08-05T01:31:33.129Z,10.43
2022-08-05T01:34:22.212Z,11.48
2022-08-05T01:37:07.891Z,11.65
2022-08-05T01:39:47.229Z,11.77
2022-08-05T01:42:25.106Z,11.10
2022-08-05T01:44:56.533Z,11.75
2022-08-05T01:47:32.550Z,12.80
2022-08-05T01:50:15.302Z,11.65
2022-08-05T01:52:50.045Z,14.43
2022-08-05T01:55:22.309Z,11.10
2022-08-05T01:58:12.459Z,13.02
2022-08-05T02:00:45.461Z,11.20
2022-08-05T02:03:31.907Z,12.38
2022-08-05T02:06:37.115Z,13.95
2022-08-05T02:08:55.004Z,14.40
2022-08-05T02:11:33.477Z,18.20
2022-08-05T02:14:17.436Z,17.13
2022-08-05T02:16:55.161Z,13.75
2022-08-05T02:19:35.527Z,15.55
2022-08-05T02:22:26.767Z,13.20
2022-08-05T02:25:04.195Z,7.53
2022-08-05T02:27:59.576Z,10.82
2022-08-05T02:30:26.944Z,15.00
2022-08-05T02:32:58.641Z,9.65
2022-08-05T02:35:33.360Z,12.23
2022-08-05T02:38:09.222Z,10.65
2022-08-05T02:40:40.961Z,9.85
2022-08-05T02:43:09.020Z,10.27
2022-08-05T02:45:52.597Z,8.40
2022-08-05T02:48:29.582Z,9.48
2022-08-05T02:51:00.719Z,12.95
2022-08-05T02:53:35.972Z,8.30
2022-08-05T02:56:11.085Z,14.27
2022-08-05T02:58:44.991Z,0.00
2022-08-05T03:01:25.485Z,0.05
2022-08-05T03:04:04.280Z,0.20
2022-08-05T03:06:54.186Z,1.45
2022-08-05T03:09:26.935Z,1.17
2022-08-05T03:12:04.788Z,0.25
2022-08-05T03:14:31.518Z,0.00
2022-08-05T03:16:59.176Z,0.00
2022-08-05T03:19:33.895Z,0.40
2022-08-05T03:22:04.751Z,0.00
2022-08-05T03:24:47.020Z,0.10
2022-08-05T03:27:14.629Z,0.00
2022-08-05T03:29:45.880Z,0.00
2022-08-05T03:32:30.917Z,0.00
2022-08-05T03:34:58.535Z,0.00
2022-08-05T03:37:25.819Z,0.00
2022-08-05T03:40:01.687Z,0.00
2022-08-05T03:42:32.754Z,0.10
2022-08-05T03:45:01.803Z,0.00
2022-08-05T03:47:47.455Z,0.00
2022-08-05T03:50:16.106Z,0.00
2022-08-05T03:55:50.630Z,0.00
2022-08-05T03:56:35.205Z,0.55
2022-08-05T03:59:16.573Z,0.03
2022-08-05T04:01:50.871Z,0.00
2022-08-05T04:04:21.524Z,2.10
2022-08-05T04:06:51.365Z,0.00
2022-08-05T04:09:26.091Z,0.30
2022-08-05T04:11:57.405Z,0.00
2022-08-05T04:14:30.601Z,0.00
2022-08-05T04:17:00.075Z,0.00
2022-08-05T04:19:29.358Z,0.00
2022-08-05T04:22:09.748Z,0.00
2022-08-05T04:24:44.438Z,0.00
2022-08-05T04:27:41.681Z,0.00
2022-08-05T04:30:09.891Z,0.00
2022-08-05T04:32:37.753Z,0.28
2022-08-05T04:35:06.851Z,0.00
2022-08-05T04:38:02.346Z,0.13
2022-08-05T04:40:36.311Z,0.00
2022-08-05T04:43:04.289Z,0.10
2022-08-05T04:45:49.098Z,0.00
2022-08-05T04:48:28.093Z,0.00
2022-08-05T04:51:02.905Z,0.00
2022-08-05T04:53:38.776Z,0.00
2022-08-05T04:56:33.446Z,0.10
2022-08-05T04:58:56.388Z,0.00
2022-08-05T05:02:05.511Z,0.00
2022-08-05T05:04:10.153Z,0.00
2022-08-05T05:06:43.066Z,0.00
2022-08-05T05:09:17.739Z,0.15
2022-08-05T05:11:55.681Z,0.00
2022-08-05T05:14:27.753Z,0.00
2022-08-05T05:17:01.852Z,0.08
2022-08-05T05:19:36.847Z,0.00
2022-08-05T05:22:22.782Z,0.47
2022-08-05T05:24:57.794Z,0.00
2022-08-05T05:27:41.404Z,0.55
2022-08-05T05:30:15.693Z,0.00
2022-08-05T05:32:56.109Z,0.00
2022-08-05T05:35:23.170Z,0.00
2022-08-05T05:37:59.480Z,0.00
2022-08-05T05:40:28.822Z,1.95
2022-08-05T05:42:57.444Z,0.00
2022-08-05T05:45:24.870Z,0.17
2022-08-05T05:48:06.062Z,0.08
2022-08-05T05:50:41.268Z,0.00
2022-08-05T05:53:22.203Z,0.00
2022-08-05T05:55:52.097Z,0.00
2022-08-05T05:58:30.290Z,0.30
2022-08-05T06:01:12.763Z,0.10
2022-08-05T06:04:01.138Z,0.03
2022-08-05T06:06:33.000Z,1.23
2022-08-05T06:09:03.938Z,0.10
2022-08-05T06:11:34.528Z,0.00
2022-08-05T06:14:02.112Z,0.22
2022-08-05T06:16:36.989Z,4.38
2022-08-05T06:19:07.063Z,0.93
2022-08-05T06:21:38.359Z,0.13
2022-08-05T06:24:11.708Z,0.95
2022-08-05T06:26:52.215Z,0.43
2022-08-05T06:29:49.268Z,0.00
2022-08-05T06:32:21.020Z,0.65
2022-08-05T06:34:58.294Z,0.10
2022-08-05T06:37:56.082Z,0.10
2022-08-05T06:40:20.720Z,0.38
2022-08-05T06:42:51.527Z,0.00
2022-08-05T06:46:02.972Z,0.75
2022-08-05T06:48:44.358Z,0.10
2022-08-05T06:50:54.942Z,0.57
2022-08-05T06:53:27.814Z,0.43
2022-08-05T06:55:59.950Z,0.30
2022-08-05T06:58:34.858Z,0.00
2022-08-05T07:01:06.322Z,0.28
2022-08-05T07:03:34.497Z,0.15
2022-08-05T07:06:05.713Z,0.03
2022-08-05T07:08:43.172Z,0.63
2022-08-05T07:11:15.926Z,0.30
2022-08-05T07:14:02.269Z,0.03
2022-08-05T07:17:56.023Z,0.45
2022-08-05T07:22:28.291Z,0.30
2022-08-05T07:25:23.191Z,0.00
2022-08-05T07:27:58.799Z,0.93
2022-08-05T07:30:34.426Z,0.30
2022-08-05T07:33:09.225Z,0.52
2022-08-05T07:36:03.138Z,0.52
2022-08-05T07:38:33.656Z,1.55
2022-08-05T07:42:07.098Z,0.25
2022-08-05T07:43:52.552Z,0.00
2022-08-05T07:46:24.594Z,0.00
2022-08-05T07:49:01.908Z,0.00
2022-08-05T07:51:40.702Z,0.00
2022-08-05T07:54:16.068Z,0.00
2022-08-05T07:57:02.477Z,0.22
2022-08-05T07:59:40.001Z,0.10
2022-08-05T08:02:17.120Z,0.40
2022-08-05T08:04:48.327Z,0.00
2022-08-05T08:07:17.693Z,0.28
2022-08-05T08:09:46.108Z,0.00
2022-08-05T08:12:35.639Z,0.00
2022-08-05T08:15:03.705Z,3.97
2022-08-05T08:17:33.006Z,0.00
2022-08-05T08:20:42.834Z,0.00
2022-08-05T08:22:57.493Z,0.00
2022-08-05T08:25:27.092Z,0.00
2022-08-05T08:28:18.308Z,0.00
2022-08-05T08:30:58.532Z,0.40
2022-08-05T08:33:25.183Z,0.25
2022-08-05T08:36:12.780Z,0.00
2022-08-05T08:38:41.316Z,0.00
2022-08-05T08:41:10.373Z,0.00
2022-08-05T08:45:24.775Z,0.00
2022-08-05T08:46:31.827Z,0.10
2022-08-05T08:49:17.476Z,0.00
2022-08-05T08:52:13.695Z,0.65
2022-08-05T08:54:42.300Z,0.00
2022-08-05T08:57:11.337Z,0.00
2022-08-05T08:59:39.106Z,0.00
2022-08-05T09:02:09.033Z,0.00
2022-08-05T09:04:58.590Z,0.00
2022-08-05T09:07:28.568Z,0.00
2022-08-05T09:09:56.302Z,0.00
2022-08-05T09:12:30.270Z,0.00
2022-08-05T09:15:04.856Z,0.13
2022-08-05T09:17:40.924Z,0.10
2022-08-05T09:20:36.187Z,0.00
2022-08-05T09:23:18.832Z,0.00
2022-08-05T09:26:02.077Z,0.00
2022-08-05T09:28:32.350Z,0.00
2022-08-05T09:31:43.846Z,0.00
2022-08-05T09:34:06.776Z,0.00
2022-08-05T09:36:54.930Z,0.00
2022-08-05T09:39:41.917Z,0.20
2022-08-05T09:42:17.361Z,0.52
2022-08-05T09:44:56.050Z,0.00
2022-08-05T09:47:35.161Z,0.00
2022-08-05T09:50:38.033Z,0.00
2022-08-05T09:53:04.484Z,0.00
2022-08-05T09:55:58.036Z,0.00
2022-08-05T09:58:23.955Z,0.00
2022-08-05T10:01:14.709Z,0.25
2022-08-05T10:03:58.714Z,0.00
2022-08-05T10:06:27.976Z,0.00
2022-08-05T10:08:55.907Z,0.00
2022-08-05T10:11:22.945Z,0.00
2022-08-05T10:13:49.939Z,0.00
2022-08-05T10:16:33.835Z,0.00
2022-08-05T10:19:08.581Z,0.00
2022-08-05T10:21:40.507Z,0.00
2022-08-05T10:24:13.525Z,0.00
2022-08-05T10:26:51.858Z,0.00
2022-08-05T10:29:24.107Z,3.42
2022-08-05T10:32:52.972Z,1.88
2022-08-05T10:35:00.845Z,6.22
2022-08-05T10:37:40.166Z,6.47
2022-08-05T10:40:44.988Z,6.82
2022-08-05T10:43:45.785Z,9.07
2022-08-05T10:46:16.280Z,9.50
2022-08-05T10:48:58.873Z,7.15
2022-08-05T10:51:53.113Z,10.05
2022-08-05T10:55:05.034Z,10.35
2022-08-05T10:57:34.275Z,10.55
2022-08-05T11:00:23.202Z,8.95
2022-08-05T11:02:59.079Z,6.97
2022-08-05T11:06:15.196Z,7.15
2022-08-05T11:09:32.202Z,10.13
2022-08-05T11:12:43.753Z,8.50
2022-08-05T11:16:00.756Z,7.35
2022-08-05T11:18:33.941Z,7.97
2022-08-05T11:21:02.893Z,7.50
2022-08-05T11:24:04.923Z,5.88
2022-08-05T11:26:43.286Z,6.35
2022-08-05T11:29:42.646Z,5.30
2022-08-05T11:32:29.891Z,5.68
2022-08-05T11:34:57.616Z,5.45
2022-08-05T11:38:28.890Z,4.93
2022-08-05T11:41:34.775Z,5.28
2022-08-05T11:44:08.363Z,6.47
2022-08-05T11:46:38.021Z,6.68
2022-08-05T11:49:24.803Z,5.25
2022-08-05T11:51:57.703Z,4.03
2022-08-05T11:54:34.400Z,5.85
2022-08-05T11:57:08.575Z,6.53
2022-08-05T11:59:52.019Z,6.13
2022-08-05T12:02:30.245Z,5.65
2022-08-05T12:05:01.347Z,5.70
2022-08-05T12:08:07.388Z,7.15
2022-08-05T12:10:43.828Z,4.80
2022-08-05T12:13:47.456Z,5.03
2022-08-05T12:16:17.461Z,3.72
2022-08-05T12:18:48.929Z,7.03
2022-08-05T12:21:30.708Z,3.45
2022-08-05T12:24:08.444Z,5.05
2022-08-05T12:26:51.264Z,4.15
2022-08-05T12:29:23.104Z,3.78
2022-08-05T12:31:53.398Z,3.63
2022-08-05T12:34:26.731Z,4.50
2022-08-05T12:36:56.702Z,3.65
2022-08-05T12:39:34.657Z,4.78
2022-08-05T12:42:16.094Z,5.35
2022-08-05T12:44:45.957Z,3.35
2022-08-05T12:47:26.129Z,3.17
2022-08-05T12:50:03.420Z,3.65
2022-08-05T12:52:41.703Z,4.93
2022-08-05T12:55:23.785Z,4.97
2022-08-05T12:58:49.408Z,4.80
2022-08-05T13:02:05.912Z,7.05
2022-08-05T13:03:39.220Z,7.28
2022-08-05T13:06:17.332Z,3.30
2022-08-05T13:08:50.941Z,3.00
2022-08-05T13:12:01.920Z,7.75
2022-08-05T13:14:19.588Z,3.78
2022-08-05T13:16:57.206Z,5.13
2022-08-05T13:19:52.367Z,8.90
2022-08-05T13:22:29.700Z,6.53
2022-08-05T13:25:05.893Z,3.33
2022-08-05T13:27:39.590Z,3.33
2022-08-05T13:30:32.957Z,8.82
2022-08-05T13:33:01.409Z,4.97
2022-08-05T13:35:31.355Z,3.75
2022-08-05T13:38:15.729Z,3.55
2022-08-05T13:40:55.303Z,3.13
2022-08-05T13:43:22.450Z,4.40
2022-08-05T13:45:49.279Z,3.65
2022-08-05T13:48:58.128Z,4.35
2022-08-05T13:51:15.656Z,2.25
2022-08-05T13:53:47.746Z,2.72
2022-08-05T13:56:18.014Z,2.55
2022-08-05T13:58:53.107Z,6.85
2022-08-05T14:01:25.904Z,2.40
2022-08-05T14:04:22.118Z,6.07
2022-08-05T14:07:11.926Z,2.80
2022-08-05T14:09:46.011Z,2.40
2022-08-05T14:12:18.093Z,2.47
2022-08-05T14:14:58.886Z,2.40
2022-08-05T14:17:26.606Z,3.92
2022-08-05T14:20:00.944Z,3.25
2022-08-05T14:22:34.418Z,2.78
2022-08-05T14:25:06.111Z,3.28
2022-08-05T14:27:48.298Z,3.97
2022-08-05T14:30:20.190Z,2.78
2022-08-05T14:32:48.789Z,3.72
2022-08-05T14:35:16.203Z,3.15
2022-08-05T14:37:52.176Z,1.88
2022-08-05T14:40:24.257Z,2.67
2022-08-05T14:42:52.114Z,4.05
2022-08-05T14:45:19.030Z,6.68
2022-08-05T14:48:05.641Z,3.97
2022-08-05T14:50:34.485Z,2.88
2022-08-05T14:53:06.778Z,5.10
2022-08-05T14:55:39.447Z,1.30
2022-08-05T14:58:11.177Z,1.73
2022-08-05T15:00:59.071Z,6.70
2022-08-05T15:03:33.236Z,2.60
2022-08-05T15:06:13.088Z,2.28
2022-08-05T15:08:58.500Z,2.17
2022-08-05T15:11:53.052Z,5.25
2022-08-05T15:14:33.623Z,2.85
2022-08-05T15:17:05.351Z,3.65
2022-08-05T15:19:36.777Z,0.68
2022-08-05T15:22:05.888Z,0.90
2022-08-05T15:24:32.766Z,2.40
2022-08-05T15:26:59.413Z,2.83
2022-08-05T15:29:29.843Z,1.20
2022-08-05T15:32:02.463Z,4.97
2022-08-05T15:34:32.009Z,2.85
2022-08-05T15:37:02.323Z,3.90
2022-08-05T15:40:58.277Z,1.98
2022-08-05T15:42:54.804Z,3.53
2022-08-05T15:45:06.201Z,4.25
2022-08-05T15:47:32.986Z,2.17
2022-08-05T15:50:03.742Z,1.48
2022-08-05T15:52:53.808Z,1.67
2022-08-05T15:55:19.440Z,4.45
2022-08-05T15:57:52.385Z,5.00
2022-08-05T16:00:25.971Z,2.53
2022-08-05T16:02:59.922Z,3.45
2022-08-05T16:05:28.386Z,0.80
2022-08-05T16:07:55.277Z,0.60
2022-08-05T16:10:25.549Z,0.95
2022-08-05T16:12:55.878Z,3.75
2022-08-05T16:15:23.581Z,3.22
2022-08-05T16:17:57.859Z,4.13
2022-08-05T16:20:25.947Z,2.22
2022-08-05T16:22:54.826Z,1.30
2022-08-05T16:25:32.218Z,3.00
2022-08-05T16:28:09.769Z,1.67
2022-08-05T16:30:37.706Z,1.42
2022-08-05T16:33:04.676Z,2.47
2022-08-05T16:35:32.308Z,0.82
2022-08-05T16:38:15.096Z,1.92
2022-08-05T16:40:51.807Z,2.80
2022-08-05T16:43:24.041Z,1.85
2022-08-05T16:46:06.371Z,2.45
2022-08-05T16:48:39.376Z,3.63
2022-08-05T16:51:09.235Z,1.52
2022-08-05T16:54:03.203Z,0.47
2022-08-05T16:56:30.174Z,2.13
2022-08-05T16:58:57.772Z,2.53
2022-08-05T17:01:24.759Z,0.40
2022-08-05T17:03:52.116Z,3.50
2022-08-05T17:06:19.807Z,1.48
2022-08-05T17:08:52.688Z,3.92
2022-08-05T17:11:23.313Z,4.67
2022-08-05T17:13:50.889Z,3.03
2022-08-05T17:16:32.473Z,1.88
2022-08-05T17:19:00.884Z,3.67
2022-08-05T17:21:36.306Z,4.07
2022-08-05T17:24:13.254Z,3.28
2022-08-05T17:26:47.229Z,8.75
2022-08-05T17:29:15.239Z,1.42
2022-08-05T17:31:57.412Z,1.25
2022-08-05T17:34:29.756Z,1.27
2022-08-05T17:37:00.266Z,2.05
2022-08-05T17:39:29.910Z,2.45
2022-08-05T17:42:19.102Z,4.00
2022-08-05T17:44:51.371Z,2.28
2022-08-05T17:47:23.598Z,3.17
2022-08-05T17:50:03.466Z,1.95
2022-08-05T17:52:52.620Z,2.72
2022-08-05T17:55:22.593Z,1.02
2022-08-05T17:57:54.341Z,0.75
2022-08-05T18:00:21.095Z,2.70
2022-08-05T18:02:55.214Z,1.23
2022-08-05T18:05:22.165Z,2.15
2022-08-05T18:07:48.922Z,5.13
2022-08-05T18:10:21.435Z,3.35
2022-08-05T18:12:49.352Z,1.58
2022-08-05T18:15:16.375Z,1.20
2022-08-05T18:17:58.890Z,1.70
2022-08-05T18:20:31.710Z,1.00
2022-08-05T18:23:11.172Z,4.05
2022-08-05T18:25:45.182Z,3.58
2022-08-05T18:28:16.665Z,0.98
2022-08-05T18:30:45.920Z,1.55
2022-08-05T18:33:18.617Z,2.42
2022-08-05T18:36:03.912Z,1.02
2022-08-05T18:38:36.168Z,1.95
2022-08-05T18:41:57.291Z,1.88
2022-08-05T18:43:52.973Z,2.95
2022-08-05T18:46:20.687Z,2.22
2022-08-05T18:48:53.749Z,1.52
2022-08-05T18:52:05.293Z,2.97
2022-08-05T18:54:31.444Z,5.00
2022-08-05T18:57:02.213Z,0.95
2022-08-05T18:59:44.113Z,4.20
2022-08-05T19:02:26.919Z,5.72
2022-08-05T19:05:02.733Z,3.13
2022-08-05T19:07:46.402Z,2.05
2022-08-05T19:10:16.632Z,3.33
2022-08-05T19:12:45.971Z,2.15
2022-08-05T19:15:56.676Z,5.85
2022-08-05T19:18:10.230Z,1.75
2022-08-05T19:20:41.306Z,2.65
2022-08-05T19:24:03.271Z,1.75
2022-08-05T19:26:01.625Z,2.40
2022-08-05T19:28:30.045Z,1.80
2022-08-05T19:30:58.113Z,0.82
2022-08-05T19:33:35.557Z,8.00
2022-08-05T19:36:06.475Z,1.83
2022-08-05T19:38:35.624Z,3.35
2022-08-05T19:41:07.380Z,2.03
2022-08-05T19:44:05.343Z,4.30
2022-08-05T19:46:29.687Z,7.00
2022-08-05T19:49:05.491Z,3.42
2022-08-05T19:51:56.441Z,3.78
2022-08-05T19:54:25.491Z,1.15
2022-08-05T19:56:56.190Z,2.25
2022-08-05T19:59:56.583Z,2.80
2022-08-05T20:02:09.914Z,1.70
2022-08-05T20:04:37.891Z,0.80
2022-08-05T20:07:13.324Z,5.78
2022-08-05T20:09:53.705Z,3.53
2022-08-05T20:12:24.255Z,3.00
2022-08-05T20:14:52.981Z,4.15
2022-08-05T20:17:23.705Z,2.88
2022-08-05T20:19:52.743Z,5.30
2022-08-05T20:22:26.673Z,2.13
2022-08-05T20:24:53.866Z,4.82
2022-08-05T20:27:21.062Z,2.08
2022-08-05T20:29:58.189Z,2.97
2022-08-05T20:32:26.895Z,5.40
2022-08-05T20:34:54.226Z,1.33
2022-08-05T20:38:05.659Z,2.22
2022-08-05T20:40:09.545Z,3.85
2022-08-05T20:42:36.307Z,1.60
2022-08-05T20:45:05.455Z,3.35
2022-08-05T20:47:33.272Z,1.90
2022-08-05T20:50:02.012Z,1.52
2022-08-05T20:52:29.896Z,5.78
2022-08-05T20:55:54.321Z,7.38
2022-08-05T20:57:44.995Z,3.33
2022-08-05T21:00:41.085Z,2.40
2022-08-05T21:03:07.817Z,2.20
2022-08-05T21:05:47.467Z,3.60
2022-08-05T21:08:28.211Z,3.25
2022-08-05T21:11:09.118Z,3.05
2022-08-05T21:13:47.599Z,2.33
2022-08-05T21:16:23.171Z,1.20
2022-08-05T21:18:57.271Z,2.53
2022-08-05T21:21:44.589Z,1.52
2022-08-05T21:24:15.994Z,2.05
2022-08-05T21:26:53.093Z,3.75
2022-08-05T21:29:26.569Z,5.85
2022-08-05T21:31:58.334Z,3.90
2022-08-05T21:34:25.016Z,2.13
2022-08-05T21:36:51.853Z,3.78
2022-08-05T21:39:26.907Z,2.03
2022-08-05T21:42:01.699Z,1.75
2022-08-05T21:44:30.468Z,2.40
2022-08-05T21:46:58.502Z,5.50
2022-08-05T21:50:00.030Z,2.92
2022-08-05T21:52:22.948Z,3.10
2022-08-05T21:54:55.926Z,3.92
2022-08-05T21:57:31.398Z,3.03
2022-08-05T22:00:11.088Z,3.72
2022-08-05T22:02:42.604Z,1.60
2022-08-05T22:05:11.321Z,6.35
2022-08-05T22:07:58.136Z,1.25
2022-08-05T22:10:27.151Z,0.95
2022-08-05T22:12:57.410Z,3.53
2022-08-05T22:15:56.566Z,4.63
2022-08-05T22:18:13.059Z,3.60
2022-08-05T22:20:41.955Z,6.47
2022-08-05T22:24:02.270Z,4.90
2022-08-05T22:26:35.191Z,1.83
2022-08-05T22:29:02.698Z,1.70
2022-08-05T22:31:30.572Z,1.95
2022-08-05T22:34:01.467Z,3.60
2022-08-05T22:36:29.150Z,3.45
2022-08-05T22:38:56.673Z,3.33
2022-08-05T22:42:04.881Z,3.72
2022-08-05T22:44:11.938Z,2.78
2022-08-05T22:46:41.068Z,4.97
2022-08-05T22:50:17.302Z,2.42
2022-08-05T22:52:06.607Z,3.95
2022-08-05T22:54:37.682Z,5.95
2022-08-05T22:57:06.613Z,2.60
2022-08-05T22:59:46.189Z,3.42
2022-08-05T23:02:18.494Z,3.13
2022-08-05T23:05:01.519Z,2.15
2022-08-05T23:07:32.109Z,6.10
2022-08-05T23:10:02.081Z,1.85
2022-08-05T23:12:32.559Z,2.92
2022-08-05T23:15:08.727Z,2.35
2022-08-05T23:17:59.783Z,3.20
2022-08-05T23:20:24.564Z,5.22
2022-08-05T23:22:54.161Z,3.10
2022-08-05T23:25:51.726Z,3.97
2022-08-05T23:28:11.477Z,1.77
2022-08-05T23:30:43.549Z,3.08
2022-08-05T23:33:16.190Z,6.88
2022-08-05T23:35:50.738Z,2.78
2022-08-05T23:38:18.066Z,5.25
2022-08-05T23:40:49.988Z,4.05
2022-08-05T23:43:25.487Z,4.05
2022-08-05T23:46:20.579Z,4.72
2022-08-05T23:49:00.866Z,4.20
2022-08-05T23:51:53.894Z,6.05
2022-08-05T23:54:34.051Z,2.60
2022-08-05T23:57:04.966Z,8.55
